Time;durP1;ratioP1;P1;durP2;ratioP2;P2;SDS_P1;SDS_P2;PMS_P1;PMS_P2;Temp;Humidity;BMP_temperature;BMP_pressure;BME280_temperature;BME280_humidity;BME280_pressure;Samples;Min_cycle;Max_cycle;Signal;HPM_P1;HPM_P2
2021/03/01 00:02:05;;;;;;;23.58;16.88;;;4.90;87.90;;;;;;5057707;28;20032;-77
2021/03/01 00:04:31;;;;;;;28.58;19.13;;;4.80;88.00;;;;;;5059565;28;20028;-75
2021/03/01 00:06:57;;;;;;;25.52;17.60;;;4.80;88.00;;;;;;5057132;28;20475;-76
2021/03/01 00:09:22;;;;;;;28.83;18.88;;;4.70;88.00;;;;;;5055871;28;20064;-78
2021/03/01 00:11:48;;;;;;;25.67;18.00;;;4.80;88.20;;;;;;5060656;28;20102;-75
2021/03/01 00:14:14;;;;;;;27.38;19.25;;;4.80;88.20;;;;;;5055593;28;20121;-75
2021/03/01 00:16:39;;;;;;;27.80;18.42;;;4.80;88.10;;;;;;5057119;28;20025;-76
2021/03/01 00:19:05;;;;;;;26.75;18.27;;;4.80;88.10;;;;;;5060080;28;20033;-81
2021/03/01 00:21:31;;;;;;;23.75;17.85;;;4.70;88.10;;;;;;5061562;28;20525;-77
2021/03/01 00:23:56;;;;;;;26.52;18.48;;;4.60;88.20;;;;;;5057728;28;20048;-74
2021/03/01 00:26:22;;;;;;;27.90;17.90;;;4.60;88.30;;;;;;5058833;28;20045;-75
2021/03/01 00:28:48;;;;;;;25.33;17.25;;;4.60;88.40;;;;;;5055351;28;20040;-74
2021/03/01 00:31:13;;;;;;;26.90;18.15;;;4.60;88.30;;;;;;5057236;28;20118;-75
2021/03/01 00:33:39;;;;;;;27.75;18.42;;;4.50;88.40;;;;;;5053981;28;20061;-77
2021/03/01 00:36:05;;;;;;;23.17;16.85;;;4.50;88.50;;;;;;5055537;28;20036;-75
2021/03/01 00:38:30;;;;;;;22.15;16.27;;;4.40;88.50;;;;;;5061416;28;20025;-74
2021/03/01 00:40:56;;;;;;;23.63;17.63;;;4.30;88.50;;;;;;5062275;28;20072;-75
2021/03/01 00:43:22;;;;;;;26.42;17.80;;;4.30;88.50;;;;;;5057463;28;20036;-74
2021/03/01 00:45:47;;;;;;;22.27;16.58;;;4.20;88.50;;;;;;5056284;28;20061;-77
2021/03/01 00:48:13;;;;;;;22.65;18.05;;;4.20;88.60;;;;;;5057973;28;20312;-75
2021/03/01 00:50:39;;;;;;;29.23;17.92;;;4.10;88.60;;;;;;5058642;28;20052;-76
2021/03/01 00:53:05;;;;;;;25.05;17.73;;;4.10;88.50;;;;;;5057069;28;20044;-79
2021/03/01 00:55:30;;;;;;;25.55;17.42;;;4.10;88.40;;;;;;5061197;28;20060;-76
2021/03/01 00:57:56;;;;;;;26.15;18.38;;;4.10;88.40;;;;;;5061161;28;20043;-74
2021/03/01 01:00:22;;;;;;;23.27;18.70;;;4.10;88.50;;;;;;5053716;28;20095;-75
2021/03/01 01:02:48;;;;;;;27.90;19.67;;;4.00;88.50;;;;;;5061372;28;20228;-75
2021/03/01 01:05:13;;;;;;;30.67;19.50;;;4.00;88.70;;;;;;5057435;28;20055;-75
2021/03/01 01:07:39;;;;;;;30.17;20.23;;;4.00;88.90;;;;;;5057830;28;20037;-78
2021/03/01 01:10:07;;;;;;;28.80;20.15;;;3.90;88.90;;;;;;5053169;28;20044;-77
2021/03/01 01:12:36;;;;;;;29.63;20.67;;;3.90;89.10;;;;;;5061558;28;20388;-76
2021/03/01 01:15:06;;;;;;;27.63;20.10;;;3.90;89.20;;;;;;5057970;28;20452;-75
2021/03/01 01:17:32;;;;;;;30.35;21.10;;;3.90;89.30;;;;;;5057943;28;20036;-77
2021/03/01 01:19:57;;;;;;;28.42;20.73;;;3.90;89.30;;;;;;5059514;28;20041;-76
2021/03/01 01:22:23;;;;;;;27.73;20.23;;;3.90;89.30;;;;;;5056734;28;20036;-74
2021/03/01 01:24:49;;;;;;;26.98;19.90;;;3.90;89.40;;;;;;5054847;28;20114;-79
2021/03/01 01:27:14;;;;;;;28.67;20.00;;;3.90;89.40;;;;;;5060405;28;20024;-75
2021/03/01 01:29:40;;;;;;;31.67;21.95;;;3.80;89.40;;;;;;5060051;28;20137;-81
2021/03/01 01:32:06;;;;;;;31.30;22.67;;;3.80;89.50;;;;;;5058389;28;20043;-79
2021/03/01 01:34:31;;;;;;;27.73;20.77;;;3.80;89.60;;;;;;5062315;28;20029;-74
2021/03/01 01:36:57;;;;;;;31.50;22.52;;;3.70;89.50;;;;;;5056345;28;20048;-82
2021/03/01 01:39:22;;;;;;;33.05;21.30;;;3.70;89.50;;;;;;5055311;28;20040;-75
2021/03/01 01:41:48;;;;;;;30.92;21.60;;;3.70;89.60;;;;;;5061430;28;20038;-79
2021/03/01 01:44:14;;;;;;;34.70;22.95;;;3.60;89.60;;;;;;5056730;28;20049;-77
2021/03/01 01:46:39;;;;;;;32.25;21.50;;;3.60;89.70;;;;;;5059284;28;20051;-76
2021/03/01 01:49:05;;;;;;;31.38;21.63;;;3.60;89.70;;;;;;5057556;28;20075;-76
2021/03/01 01:51:31;;;;;;;34.40;24.02;;;3.60;89.90;;;;;;5058548;28;20078;-77
2021/03/01 01:53:57;;;;;;;34.15;22.75;;;3.60;90.00;;;;;;5055318;28;20062;-76
2021/03/01 01:56:22;;;;;;;31.55;22.77;;;3.60;90.00;;;;;;5060863;28;20029;-77
2021/03/01 01:58:48;;;;;;;31.60;23.02;;;3.60;90.00;;;;;;5058225;28;20044;-74
2021/03/01 02:01:14;;;;;;;33.83;23.30;;;3.60;90.00;;;;;;5058794;28;20032;-75
2021/03/01 02:03:39;;;;;;;34.92;22.98;;;3.60;90.10;;;;;;5058214;28;20032;-76
2021/03/01 02:06:34;;;;;;;34.83;24.15;;;3.60;90.00;;;;;;5058491;28;20435;-76
2021/03/01 02:09:19;;;;;;;34.72;24.02;;;3.60;90.10;;;;;;5047779;28;20102;-77
2021/03/01 02:11:57;;;;;;;37.65;25.90;;;3.50;90.20;;;;;;5031192;28;20107;-74
2021/03/01 02:14:32;;;;;;;32.75;23.55;;;3.50;90.30;;;;;;5037397;28;20026;-74
2021/03/01 02:16:58;;;;;;;;;;;3.50;90.30;;;;;;5038962;28;20041;-76
2021/03/01 02:19:25;;;;;;;36.38;24.58;;;3.40;90.30;;;;;;5033544;28;19920;-74
2021/03/01 02:21:51;;;;;;;39.22;27.10;;;3.40;90.50;;;;;;5038043;28;20251;-75
2021/03/01 02:24:24;;;;;;;44.13;27.83;;;3.40;90.60;;;;;;5036232;28;20043;-78
2021/03/01 02:26:53;;;;;;;38.05;26.70;;;3.50;90.90;;;;;;5036677;28;20056;-74
2021/03/01 02:29:21;;;;;;;42.67;28.13;;;3.50;91.00;;;;;;5036287;28;20048;-79
2021/03/01 02:31:48;;;;;;;41.50;29.02;;;3.50;91.00;;;;;;5037727;28;20818;-74
2021/03/01 02:34:17;;;;;;;38.20;28.10;;;3.50;91.00;;;;;;5038778;28;20037;-74
2021/03/01 02:36:58;;;;;;;36.58;27.65;;;3.50;91.00;;;;;;5037596;28;20037;-78
2021/03/01 02:39:26;;;;;;;40.75;26.98;;;3.50;90.90;;;;;;5037256;28;20056;-74
2021/03/01 02:41:53;;;;;;;38.70;27.00;;;3.50;90.90;;;;;;5036933;28;20032;-78
2021/03/01 02:44:20;;;;;;;41.15;28.98;;;3.50;90.90;;;;;;5039877;28;20037;-75
2021/03/01 02:46:46;;;;;;;42.83;28.75;;;3.50;90.80;;;;;;5039656;28;20458;-75
2021/03/01 02:49:14;;;;;;;40.53;28.45;;;3.40;90.80;;;;;;5035139;28;20041;-77
2021/03/01 02:51:42;;;;;;;42.03;29.90;;;3.40;90.90;;;;;;5034876;28;20087;-75
2021/03/01 02:54:08;;;;;;;40.90;29.13;;;3.40;90.90;;;;;;5037868;28;20045;-77
2021/03/01 02:56:34;;;;;;;44.17;29.90;;;3.40;91.00;;;;;;5034057;28;20174;-75
2021/03/01 02:59:01;;;;;;;39.03;28.45;;;3.40;90.90;;;;;;5039285;28;20511;-74
2021/03/01 03:01:28;;;;;;;37.63;28.73;;;3.40;90.90;;;;;;5034162;28;20409;-76
2021/03/01 03:03:54;;;;;;;43.47;29.17;;;3.30;91.00;;;;;;5040809;28;20033;-74
2021/03/01 03:06:25;;;;;;;42.63;29.88;;;3.40;91.00;;;;;;5035709;28;22144;-74
2021/03/01 03:08:51;;;;;;;42.08;29.27;;;3.40;91.00;;;;;;5038008;28;20056;-75
2021/03/01 03:11:19;;;;;;;41.88;29.27;;;3.40;91.00;;;;;;5036460;28;20049;-75
2021/03/01 03:13:48;;;;;;;39.67;29.05;;;3.30;91.00;;;;;;5036441;28;20106;-75
2021/03/01 03:16:15;;;;;;;39.22;28.77;;;3.30;91.00;;;;;;5036983;28;20080;-81
2021/03/01 03:18:43;;;;;;;44.97;29.80;;;3.30;91.10;;;;;;5039565;28;20383;-75
2021/03/01 03:21:09;;;;;;;40.92;29.92;;;3.20;91.10;;;;;;5036535;28;20037;-76
2021/03/01 03:23:35;;;;;;;45.05;31.60;;;3.30;91.10;;;;;;5035103;28;20041;-75
2021/03/01 03:26:01;;;;;;;41.88;31.75;;;3.20;91.10;;;;;;5037284;28;20055;-76
2021/03/01 03:28:27;;;;;;;40.45;30.00;;;3.20;91.20;;;;;;5032217;28;20064;-74
2021/03/01 03:30:52;;;;;;;44.58;32.13;;;3.20;91.20;;;;;;5038218;28;20473;-76
2021/03/01 03:33:18;;;;;;;43.42;31.33;;;3.10;91.20;;;;;;5034751;28;20049;-78
2021/03/01 03:35:44;;;;;;;45.15;33.55;;;3.20;91.30;;;;;;5041188;28;20040;-74
2021/03/01 03:38:23;;;;;;;43.50;32.13;;;3.20;91.40;;;;;;5043362;28;20087;-79
2021/03/01 03:40:51;;;;;;;45.38;32.55;;;3.20;91.40;;;;;;5040943;28;20081;-74
2021/03/01 03:43:18;;;;;;;45.42;32.85;;;3.20;91.40;;;;;;5036633;28;20120;-79
2021/03/01 03:45:45;;;;;;;49.15;33.00;;;3.20;91.50;;;;;;5038581;28;20064;-74
2021/03/01 03:48:12;;;;;;;50.25;35.72;;;3.10;91.40;;;;;;5040814;28;20589;-76
2021/03/01 03:50:41;;;;;;;43.83;33.13;;;3.10;91.50;;;;;;5043934;28;20130;-76
2021/03/01 03:53:12;;;;;;;48.15;35.15;;;3.10;91.60;;;;;;5038262;28;20084;-78
2021/03/01 03:55:42;;;;;;;46.63;34.63;;;3.20;91.60;;;;;;5042921;28;20041;-75
2021/03/01 03:58:13;;;;;;;49.00;34.10;;;3.20;91.70;;;;;;5037898;28;20049;-75
2021/03/01 04:00:39;;;;;;;44.55;34.53;;;3.20;91.60;;;;;;5040612;28;20059;-75
2021/03/01 04:03:11;;;;;;;47.83;34.17;;;3.20;91.40;;;;;;5039139;28;20376;-74
2021/03/01 04:05:41;;;;;;;48.67;34.97;;;3.20;91.40;;;;;;5037699;28;20468;-76
2021/03/01 04:08:08;;;;;;;45.85;34.58;;;3.10;91.40;;;;;;5042122;28;20045;-76
2021/03/01 04:10:35;;;;;;;48.67;35.13;;;3.10;91.50;;;;;;5040242;28;20053;-74
2021/03/01 04:13:01;;;;;;;65.20;37.38;;;3.10;91.60;;;;;;5058724;28;20123;-75
2021/03/01 04:15:30;;;;;;;51.08;37.05;;;3.10;91.60;;;;;;5060672;28;20383;-74
2021/03/01 04:17:57;;;;;;;49.35;35.65;;;3.10;91.60;;;;;;5066671;28;20036;-75
2021/03/01 04:20:23;;;;;;;52.78;37.03;;;3.10;91.70;;;;;;5059778;28;20498;-75
2021/03/01 04:22:52;;;;;;;50.92;35.75;;;3.00;91.70;;;;;;5063057;28;20368;-75
2021/03/01 04:25:19;;;;;;;50.80;36.78;;;3.00;91.80;;;;;;5057668;28;20036;-74
2021/03/01 04:27:45;;;;;;;54.05;37.40;;;2.90;91.80;;;;;;5059725;28;20087;-74
2021/03/01 04:30:14;;;;;;;55.80;38.42;;;2.90;92.00;;;;;;5053204;28;20403;-75
2021/03/01 04:32:43;;;;;;;57.45;37.85;;;3.00;92.00;;;;;;5058247;28;20438;-75
2021/03/01 04:35:11;;;;;;;55.28;37.58;;;2.90;92.00;;;;;;5054740;28;20064;-75
2021/03/01 04:37:37;;;;;;;54.00;37.88;;;2.90;92.10;;;;;;5060742;28;20038;-77
2021/03/01 04:40:04;;;;;;;59.38;38.63;;;2.90;92.10;;;;;;5059263;28;20484;-74
2021/03/01 04:42:32;;;;;;;57.88;40.25;;;2.90;92.20;;;;;;5060987;28;20111;-75
2021/03/01 04:44:59;;;;;;;55.95;39.38;;;2.90;92.20;;;;;;5054297;28;20107;-79
2021/03/01 04:47:29;;;;;;;57.85;39.05;;;2.90;92.10;;;;;;5058870;28;20075;-76
2021/03/01 04:49:55;;;;;;;59.53;37.97;;;2.90;92.10;;;;;;5058186;28;20117;-77
2021/03/01 04:52:22;;;;;;;55.60;40.20;;;2.90;92.10;;;;;;5053395;28;20063;-74
2021/03/01 04:54:49;;;;;;;56.88;38.72;;;2.80;92.10;;;;;;5063920;28;20024;-76
2021/03/01 04:57:16;;;;;;;58.22;40.38;;;2.80;92.10;;;;;;5056560;28;20471;-74
2021/03/01 04:59:42;;;;;;;57.20;38.97;;;2.80;92.20;;;;;;5058833;28;20044;-74
2021/03/01 05:02:09;;;;;;;59.78;40.75;;;2.80;92.10;;;;;;5058106;28;20041;-74
2021/03/01 05:04:36;;;;;;;59.50;41.13;;;2.70;92.10;;;;;;5061183;28;20544;-74
2021/03/01 05:07:04;;;;;;;64.45;42.15;;;2.70;92.30;;;;;;5058835;28;20036;-74
2021/03/01 05:09:30;;;;;;;57.33;40.92;;;2.70;92.30;;;;;;5061824;28;20527;-74
2021/03/01 05:11:56;;;;;;;59.22;41.83;;;2.70;92.30;;;;;;5055262;28;20037;-74
2021/03/01 05:14:21;;;;;;;57.28;40.97;;;2.60;92.30;;;;;;5057567;28;20029;-75
2021/03/01 05:16:47;;;;;;;58.05;40.45;;;2.70;92.30;;;;;;5053642;28;20079;-76
2021/03/01 05:19:13;;;;;;;56.70;39.53;;;2.60;92.30;;;;;;5055271;28;20463;-75
2021/03/01 05:21:38;;;;;;;56.95;39.35;;;2.60;92.30;;;;;;5063841;28;20517;-79
2021/03/01 05:24:05;;;;;;;59.47;39.85;;;2.60;92.30;;;;;;5058254;28;20044;-75
2021/03/01 05:26:30;;;;;;;63.58;41.55;;;2.60;92.30;;;;;;5060818;28;20123;-75
2021/03/01 05:28:57;;;;;;;59.45;40.63;;;2.50;92.30;;;;;;5060098;28;20139;-74
2021/03/01 05:31:24;;;;;;;59.22;42.35;;;2.40;92.40;;;;;;5058963;28;20147;-78
2021/03/01 05:33:50;;;;;;;63.55;43.13;;;2.40;92.40;;;;;;5057166;28;20047;-74
2021/03/01 05:36:15;;;;;;;58.22;42.05;;;2.40;92.40;;;;;;5058532;28;20488;-74
2021/03/01 05:38:41;;;;;;;58.78;42.28;;;2.30;92.50;;;;;;5059115;28;20025;-76
2021/03/01 05:41:08;;;;;;;56.42;41.03;;;2.30;92.50;;;;;;5058814;28;20094;-74
2021/03/01 05:43:34;;;;;;;58.67;41.22;;;2.30;92.60;;;;;;5060819;28;20044;-77
2021/03/01 05:46:00;;;;;;;62.08;44.20;;;2.30;92.60;;;;;;5060831;28;20286;-75
2021/03/01 05:48:28;;;;;;;64.40;43.08;;;2.40;92.70;;;;;;5059541;28;20032;-75
2021/03/01 05:50:56;;;;;;;67.07;44.58;;;2.30;92.70;;;;;;5059815;28;20044;-74
2021/03/01 05:53:25;;;;;;;65.40;44.30;;;2.40;92.80;;;;;;5059630;28;20082;-74
2021/03/01 05:55:52;;;;;;;74.03;47.58;;;2.50;92.80;;;;;;5053407;28;20040;-75
2021/03/01 05:58:20;;;;;;;73.25;48.13;;;2.50;92.80;;;;;;5060026;28;20037;-75
2021/03/01 06:00:46;;;;;;;71.07;47.42;;;2.60;92.90;;;;;;5058729;28;20127;-76
2021/03/01 06:03:15;;;;;;;79.63;50.05;;;2.60;93.00;;;;;;5057889;28;20493;-74
2021/03/01 06:05:42;;;;;;;80.38;52.78;;;2.70;92.90;;;;;;5053796;28;20045;-80
2021/03/01 06:08:09;;;;;;;94.10;55.05;;;2.80;92.90;;;;;;5060844;28;20476;-74
2021/03/01 06:10:35;;;;;;;96.03;58.35;;;2.80;92.90;;;;;;5059711;28;20056;-74
2021/03/01 06:13:01;;;;;;;104.53;60.10;;;2.90;92.90;;;;;;5054585;28;20041;-81
2021/03/01 06:15:27;;;;;;;103.75;57.15;;;2.90;92.90;;;;;;5057983;28;20032;-76
2021/03/01 06:18:10;;;;;;;100.80;58.78;;;3.00;92.90;;;;;;5060422;28;20051;-74
2021/03/01 06:20:36;;;;;;;136.27;58.72;;;3.10;92.80;;;;;;5058902;28;20127;-74
2021/03/01 06:23:03;;;;;;;100.82;58.25;;;3.10;92.80;;;;;;5058150;28;20068;-76
2021/03/01 06:25:29;;;;;;;101.38;57.88;;;3.10;92.80;;;;;;5055507;28;20039;-75
2021/03/01 06:27:57;;;;;;;134.80;59.90;;;3.10;92.70;;;;;;5057843;28;20137;-74
2021/03/01 06:30:28;;;;;;;98.93;56.22;;;3.10;92.70;;;;;;5055426;28;20045;-77
2021/03/01 06:33:03;;;;;;;113.55;58.50;;;3.10;92.70;;;;;;5058912;28;20416;-74
2021/03/01 06:35:33;;;;;;;;;;;3.10;92.80;;;;;;5061632;28;20090;-74
2021/03/01 06:38:28;;;;;;;114.20;62.53;;;3.10;92.80;;;;;;5058585;28;19917;-75
2021/03/01 06:41:16;;;;;;;126.68;64.07;;;3.20;92.90;;;;;;5062766;28;20098;-76
2021/03/01 06:43:56;;;;;;;111.15;58.90;;;3.20;92.90;;;;;;5051511;28;20171;-75
2021/03/01 06:46:33;;;;;;;109.50;59.92;;;3.20;92.90;;;;;;5054698;28;20071;-75
2021/03/01 06:49:15;;;;;;;114.55;60.97;;;3.30;92.80;;;;;;5056074;28;20131;-80
2021/03/01 06:51:41;;;;;;;112.70;60.65;;;3.30;92.80;;;;;;5033105;28;20106;-75
2021/03/01 06:54:08;;;;;;;113.75;62.50;;;3.20;92.80;;;;;;5032081;28;20460;-77
2021/03/01 06:56:43;;;;;;;112.18;59.45;;;3.20;92.90;;;;;;5036815;28;20069;-74
2021/03/01 06:59:19;;;;;;;109.45;58.05;;;3.30;92.90;;;;;;5034482;28;20080;-74
2021/03/01 07:01:52;;;;;;;114.72;59.90;;;3.20;92.80;;;;;;5033732;28;20108;-75
2021/03/01 07:04:22;;;;;;;118.07;58.95;;;3.20;92.90;;;;;;5038698;28;20080;-75
2021/03/01 07:06:49;;;;;;;126.90;60.70;;;3.20;92.90;;;;;;5036180;28;20948;-75
2021/03/01 07:09:20;;;;;;;106.15;57.63;;;3.20;92.80;;;;;;5041121;28;20053;-74
2021/03/01 07:11:46;;;;;;;115.80;59.85;;;3.20;92.80;;;;;;5039331;28;20084;-75
2021/03/01 07:14:14;;;;;;;108.78;58.65;;;3.20;92.90;;;;;;5044232;28;20120;-76
2021/03/01 07:16:54;;;;;;;100.18;57.80;;;3.20;92.90;;;;;;5041466;28;20033;-74
2021/03/01 07:19:22;;;;;;;107.32;57.42;;;3.30;92.90;;;;;;5037266;28;20111;-70
2021/03/01 07:21:53;;;;;;;97.18;55.35;;;3.30;92.80;;;;;;5037925;28;20033;-71
2021/03/01 07:24:21;;;;;;;106.28;58.83;;;3.40;92.80;;;;;;5039029;28;20054;-70
2021/03/01 07:26:48;;;;;;;104.30;55.40;;;3.40;92.70;;;;;;5040472;28;20507;-71
2021/03/01 07:29:16;;;;;;;96.80;56.17;;;3.40;92.70;;;;;;5037068;28;21022;-71
2021/03/01 07:31:46;;;;;;;92.07;52.88;;;3.40;92.60;;;;;;5036927;28;20040;-71
2021/03/01 07:34:12;;;;;;;86.93;52.53;;;3.40;92.60;;;;;;5034278;28;20025;-71
2021/03/01 07:36:38;;;;;;;86.65;51.85;;;3.50;92.40;;;;;;5037356;28;20041;-73
2021/03/01 07:39:09;;;;;;;88.18;50.67;;;3.50;92.30;;;;;;5041569;28;20476;-71
2021/03/01 07:41:36;;;;;;;83.00;50.42;;;3.40;92.20;;;;;;5033503;28;20048;-73
2021/03/01 07:44:02;;;;;;;86.60;49.17;;;3.50;92.20;;;;;;5037168;28;20068;-73
2021/03/01 07:46:34;;;;;;;77.72;47.90;;;3.40;92.00;;;;;;5034081;28;20048;-71
2021/03/01 07:48:59;;;;;;;79.65;48.40;;;3.40;91.90;;;;;;5036066;28;20044;-71
2021/03/01 07:51:46;;;;;;;83.78;47.80;;;3.40;91.90;;;;;;5029897;28;20037;-74
2021/03/01 07:54:14;;;;;;;82.93;47.17;;;3.40;91.90;;;;;;5033462;28;20029;-70
2021/03/01 07:56:39;;;;;;;80.80;49.03;;;3.40;91.80;;;;;;5033204;28;20404;-71
2021/03/01 07:59:07;;;;;;;76.80;47.15;;;3.40;91.90;;;;;;5034184;28;20080;-72
2021/03/01 08:01:33;;;;;;;78.43;45.97;;;3.50;91.70;;;;;;5040056;28;20036;-70
2021/03/01 08:03:59;;;;;;;82.28;47.20;;;3.50;91.70;;;;;;5040156;28;20040;-71
2021/03/01 08:06:45;;;;;;;78.10;47.08;;;3.60;91.60;;;;;;5038312;28;20043;-70
2021/03/01 08:09:11;;;;;;;78.35;46.20;;;3.50;91.50;;;;;;5038368;28;20036;-72
2021/03/01 08:11:41;;;;;;;84.53;47.53;;;3.40;91.40;;;;;;5041695;28;20029;-73
2021/03/01 08:14:12;;;;;;;82.15;46.38;;;3.40;91.50;;;;;;5041447;28;20098;-71
2021/03/01 08:16:38;;;;;;;83.82;47.63;;;3.40;91.50;;;;;;5038363;28;20029;-71
2021/03/01 08:19:04;;;;;;;85.82;45.70;;;3.30;91.50;;;;;;5038287;28;20180;-71
2021/03/01 08:22:05;;;;;;;82.03;47.72;;;3.30;91.50;;;;;;5038434;28;20477;-71
2021/03/01 08:24:54;;;;;;;77.00;45.00;;;3.40;91.70;;;;;;5024061;28;20456;-70
2021/03/01 08:27:25;;;;;;;84.30;47.60;;;3.40;91.60;;;;;;5035339;28;20108;-70
2021/03/01 08:30:19;;;;;;;77.40;45.70;;;3.40;91.60;;;;;;5041471;28;20054;-71
2021/03/01 08:33:08;;;;;;;82.40;48.40;;;3.50;91.70;;;;;;5042369;28;20135;-71
2021/03/01 08:35:41;;;;;;;85.00;47.85;;;3.60;91.70;;;;;;5033167;28;20044;-71
2021/03/01 08:38:08;;;;;;;79.93;46.22;;;3.60;91.50;;;;;;5034666;28;20492;-71
2021/03/01 08:40:34;;;;;;;86.05;48.90;;;3.80;91.50;;;;;;5038617;28;20037;-72
2021/03/01 08:43:01;;;;;;;78.45;45.65;;;3.80;91.40;;;;;;5047596;28;20518;-72
2021/03/01 08:45:30;;;;;;;77.85;45.63;;;3.70;91.00;;;;;;5033533;28;20064;-74
2021/03/01 08:47:58;;;;;;;87.28;47.33;;;3.70;91.00;;;;;;5042367;28;20064;-72
2021/03/01 08:50:34;;;;;;;79.22;45.78;;;3.70;91.00;;;;;;5034144;28;20132;-71
2021/03/01 08:53:00;;;;;;;81.80;45.92;;;3.70;91.00;;;;;;5039433;28;20133;-71
2021/03/01 08:55:26;;;;;;;85.80;47.50;;;3.80;91.00;;;;;;5035562;28;21329;-70
2021/03/01 08:58:03;;;;;;;78.30;43.38;;;3.90;91.00;;;;;;5039757;28;20065;-70
2021/03/01 09:00:31;;;;;;;79.35;44.45;;;4.00;90.90;;;;;;5032237;28;20045;-72
2021/03/01 09:03:10;;;;;;;86.05;45.95;;;4.00;90.50;;;;;;5038484;28;20676;-69
2021/03/01 09:05:36;;;;;;;78.00;43.42;;;4.10;90.30;;;;;;5058697;28;20040;-70
2021/03/01 09:08:02;;;;;;;76.15;42.30;;;4.20;90.20;;;;;;5063582;28;20039;-70
2021/03/01 09:10:54;;;;;;;73.03;41.88;;;4.30;89.90;;;;;;5058379;28;20116;-71
2021/03/01 09:13:21;;;;;;;76.15;42.80;;;4.50;89.40;;;;;;5052330;28;20036;-70
2021/03/01 09:15:50;;;;;;;79.15;44.55;;;4.60;89.10;;;;;;5057333;28;20429;-67
2021/03/01 09:18:16;;;;;;;74.32;42.20;;;4.60;88.70;;;;;;5056819;28;20085;-72
2021/03/01 09:20:52;;;;;;;76.05;43.03;;;4.80;88.60;;;;;;5049599;28;20547;-69
2021/03/01 09:23:43;;;;;;;77.63;42.53;;;4.90;88.40;;;;;;5048114;28;20032;-70
2021/03/01 09:26:27;;;;;;;80.85;43.20;;;5.00;87.70;;;;;;5046545;28;20029;-71
2021/03/01 09:29:20;;;;;;;78.13;42.27;;;5.00;87.80;;;;;;5047783;28;20029;-73
2021/03/01 09:31:51;;;;;;;71.93;41.50;;;5.10;87.70;;;;;;5048733;28;20044;-70
2021/03/01 09:34:18;;;;;;;75.45;43.33;;;5.20;87.60;;;;;;5049004;28;20040;-70
2021/03/01 09:36:49;;;;;;;77.80;42.90;;;5.10;86.80;;;;;;5053495;28;20037;-70
2021/03/01 09:39:21;;;;;;;76.45;42.42;;;5.10;86.40;;;;;;5059334;28;20395;-69
2021/03/01 09:41:50;;;;;;;86.00;45.22;;;5.20;86.90;;;;;;5056852;28;20041;-70
2021/03/01 09:44:23;;;;;;;75.75;41.55;;;5.20;86.40;;;;;;5053512;28;20033;-71
2021/03/01 09:46:50;;;;;;;71.88;42.13;;;5.20;86.30;;;;;;5053099;28;20055;-75
2021/03/01 09:49:16;;;;;;;83.93;44.35;;;5.30;86.10;;;;;;5054158;28;20378;-71
2021/03/01 09:51:44;;;;;;;88.53;45.00;;;5.50;86.00;;;;;;5054050;28;21851;-73
2021/03/01 09:54:10;;;;;;;79.90;42.25;;;5.50;85.90;;;;;;5052007;28;20044;-71
2021/03/01 09:56:52;;;;;;;77.90;42.00;;;5.60;86.00;;;;;;5053786;28;20324;-70
2021/03/01 09:59:30;;;;;;;78.78;41.42;;;5.60;85.30;;;;;;5053204;28;20384;-71
2021/03/01 10:02:15;;;;;;;72.13;41.08;;;5.60;84.80;;;;;;5056146;28;20047;-73
2021/03/01 10:04:41;;;;;;;82.57;43.03;;;5.50;84.70;;;;;;5043243;28;20471;-71
2021/03/01 10:07:21;;;;;;;80.90;42.53;;;5.50;85.00;;;;;;5018256;28;20095;-73
2021/03/01 10:09:48;;;;;;;72.82;40.38;;;5.50;85.00;;;;;;5026243;28;20043;-73
2021/03/01 10:12:14;;;;;;;82.97;44.55;;;5.60;85.00;;;;;;5023945;28;20455;-71
2021/03/01 10:14:41;;;;;;;82.43;42.10;;;5.60;84.70;;;;;;5026419;28;20048;-74
2021/03/01 10:17:33;;;;;;;73.70;40.17;;;5.60;84.40;;;;;;5029587;28;20510;-72
2021/03/01 10:20:07;;;;;;;76.13;40.30;;;5.60;84.60;;;;;;5045523;28;20047;-71
2021/03/01 10:22:57;;;;;;;77.03;40.40;;;5.50;84.40;;;;;;5028550;28;20116;-71
2021/03/01 10:25:34;;;;;;;93.40;49.90;;;5.50;84.60;;;;;;5027877;28;20029;-71
2021/03/01 10:28:00;;;;;;;87.32;46.65;;;5.70;84.70;;;;;;5026144;28;20037;-71
2021/03/01 10:30:26;;;;;;;81.18;46.10;;;5.80;84.10;;;;;;5026002;28;20650;-72
2021/03/01 10:33:04;;;;;;;78.93;42.78;;;5.80;84.20;;;;;;5030023;28;20249;-74
2021/03/01 10:35:29;;;;;;;77.63;41.30;;;6.00;83.70;;;;;;5026825;28;20542;-70
2021/03/01 10:38:08;;;;;;;79.00;42.03;;;6.00;83.50;;;;;;5028157;28;20033;-72
2021/03/01 10:40:35;;;;;;;83.22;42.40;;;6.10;83.70;;;;;;5034957;28;20119;-75
2021/03/01 10:43:11;;;;;;;93.70;50.60;;;6.10;83.40;;;;;;5050964;28;20483;-73
2021/03/01 10:45:42;;;;;;;74.53;39.40;;;6.10;83.70;;;;;;5051415;28;20344;-72
2021/03/01 10:48:09;;;;;;;84.60;47.70;;;6.20;82.40;;;;;;5047660;28;20049;-71
2021/03/01 10:50:34;;;;;;;84.80;46.47;;;6.20;82.60;;;;;;5050747;28;20071;-74
2021/03/01 10:53:00;;;;;;;77.80;41.17;;;6.20;82.70;;;;;;5050951;28;20191;-71
2021/03/01 10:55:26;;;;;;;79.47;44.60;;;6.20;82.20;;;;;;5062229;28;20210;-75
2021/03/01 10:57:51;;;;;;;81.15;43.17;;;6.20;82.70;;;;;;5059207;28;20570;-74
2021/03/01 11:00:17;;;;;;;77.40;43.08;;;6.20;83.00;;;;;;5052121;28;20372;-71
2021/03/01 11:02:43;;;;;;;81.93;43.58;;;6.20;82.50;;;;;;5051820;28;20492;-73
2021/03/01 11:05:09;;;;;;;81.20;44.17;;;6.30;82.40;;;;;;5056482;28;20450;-75
2021/03/01 11:07:34;;;;;;;81.00;43.65;;;6.20;82.40;;;;;;5055409;28;20116;-73
2021/03/01 11:10:01;;;;;;;84.40;42.72;;;6.60;82.80;;;;;;5047634;28;20128;-73
2021/03/01 11:12:27;;;;;;;83.95;43.90;;;6.90;81.90;;;;;;5053179;28;20106;-73
2021/03/01 11:14:52;;;;;;;78.78;42.30;;;7.30;80.50;;;;;;5056422;28;20547;-70
2021/03/01 11:17:18;;;;;;;81.20;42.78;;;7.10;79.90;;;;;;5054606;28;20032;-75
2021/03/01 11:19:43;;;;;;;78.10;40.90;;;7.10;80.00;;;;;;5057868;28;20104;-71
2021/03/01 11:22:09;;;;;;;81.13;42.58;;;7.10;79.70;;;;;;5069191;28;20033;-74
2021/03/01 11:24:35;;;;;;;79.43;41.97;;;7.30;80.00;;;;;;5060039;28;20041;-72
2021/03/01 11:27:01;;;;;;;81.35;43.42;;;7.40;80.20;;;;;;5052471;28;20471;-72
2021/03/01 11:29:26;;;;;;;84.85;43.35;;;7.30;79.10;;;;;;5053292;28;20048;-75
2021/03/01 11:31:52;;;;;;;78.28;40.85;;;7.30;79.10;;;;;;5055529;28;20447;-71
2021/03/01 11:34:19;;;;;;;80.78;42.50;;;7.50;78.50;;;;;;5050804;28;20538;-72
2021/03/01 11:36:44;;;;;;;87.45;44.40;;;7.60;78.60;;;;;;5052894;28;20029;-69
2021/03/01 11:39:13;;;;;;;83.07;42.45;;;7.90;78.80;;;;;;5046993;28;20403;-74
2021/03/01 11:41:39;;;;;;;82.10;45.30;;;8.00;78.10;;;;;;5047413;28;20036;-73
2021/03/01 11:44:06;;;;;;;82.15;44.00;;;8.30;79.10;;;;;;5056900;28;20048;-72
2021/03/01 11:46:31;;;;;;;90.97;45.45;;;8.10;78.40;;;;;;5049239;28;20690;-72
2021/03/01 11:48:57;;;;;;;89.30;48.05;;;8.10;77.80;;;;;;5067734;28;20044;-73
2021/03/01 11:51:23;;;;;;;85.47;46.65;;;7.60;79.50;;;;;;5052251;28;20455;-74
2021/03/01 11:53:48;;;;;;;78.53;43.05;;;7.60;80.80;;;;;;5052192;28;20040;-75
2021/03/01 11:56:14;;;;;;;83.07;42.60;;;7.90;79.70;;;;;;5046411;28;20040;-72
2021/03/01 11:58:41;;;;;;;79.25;41.25;;;7.80;78.10;;;;;;5047805;28;20123;-73
2021/03/01 12:01:08;;;;;;;80.65;40.90;;;7.60;78.40;;;;;;5047177;28;20530;-76
2021/03/01 12:03:35;;;;;;;78.57;40.85;;;7.90;78.60;;;;;;5054325;28;20477;-72
2021/03/01 12:06:01;;;;;;;72.43;41.15;;;7.50;78.10;;;;;;5054207;28;20407;-73
2021/03/01 12:08:27;;;;;;;71.80;38.42;;;7.90;78.30;;;;;;5052241;28;20581;-74
2021/03/01 12:10:53;;;;;;;71.40;38.47;;;8.10;77.70;;;;;;5055332;28;20033;-73
2021/03/01 12:13:18;;;;;;;68.97;38.53;;;8.50;75.40;;;;;;5055855;28;20043;-72
2021/03/01 12:15:44;;;;;;;71.28;39.63;;;8.90;75.70;;;;;;5053998;28;20041;-72
2021/03/01 12:18:10;;;;;;;74.97;40.72;;;9.20;73.60;;;;;;5053016;28;20082;-72
2021/03/01 12:20:36;;;;;;;69.90;38.50;;;9.30;72.70;;;;;;5054292;28;20412;-76
2021/03/01 12:23:02;;;;;;;78.22;41.42;;;8.90;73.70;;;;;;5055773;28;20469;-73
2021/03/01 12:25:27;;;;;;;72.85;39.83;;;8.60;73.70;;;;;;5054811;28;20135;-72
2021/03/01 12:27:53;;;;;;;74.53;40.03;;;8.40;74.80;;;;;;5058182;28;20040;-75
2021/03/01 12:30:19;;;;;;;71.70;39.08;;;8.30;75.60;;;;;;5060144;28;20939;-73
2021/03/01 12:32:45;;;;;;;73.00;39.10;;;8.40;74.90;;;;;;5060929;28;20028;-73
2021/03/01 12:35:11;;;;;;;72.97;38.90;;;8.70;74.90;;;;;;5053713;28;20077;-73
2021/03/01 12:37:37;;;;;;;72.25;37.90;;;8.90;73.20;;;;;;5060526;28;20479;-72
2021/03/01 12:40:04;;;;;;;70.03;39.05;;;9.20;72.60;;;;;;5060000;28;20067;-72
2021/03/01 12:42:30;;;;;;;73.90;38.83;;;9.30;71.90;;;;;;5057074;28;20024;-73
2021/03/01 12:44:55;;;;;;;68.65;38.75;;;8.90;72.40;;;;;;5054976;28;20393;-72